Time;durP1;ratioP1;P1;durP2;ratioP2;P2;SDS_P1;SDS_P2;PMS_P1;PMS_P2;Temp;Humidity;BMP_temperature;BMP_pressure;BME280_temperature;BME280_humidity;BME280_pressure;Samples;Min_cycle;Max_cycle;Signal;HPM_P1;HPM_P2
2023/11/16 00:02:13;;;;;;;36.50;20.30;;;;;;;;;;4955191;28;20046;-74
2023/11/16 00:04:40;;;;;;;48.30;22.15;;;;;;;;;;4955353;28;20064;-73
2023/11/16 00:07:08;;;;;;;46.50;21.40;;;;;;;;;;4972276;28;20400;-74
2023/11/16 00:09:34;;;;;;;34.80;18.85;;;;;;;;;;4972273;28;20104;-75
2023/11/16 00:12:00;;;;;;;44.28;20.83;;;;;;;;;;4972185;28;20533;-74
2023/11/16 00:14:27;;;;;;;42.58;20.90;;;;;;;;;;4971993;28;20055;-73
2023/11/16 00:16:54;;;;;;;36.22;18.52;;;;;;;;;;4972284;28;20058;-74
2023/11/16 00:19:23;;;;;;;34.70;20.45;;;;;;;;;;4955715;28;20050;-74
2023/11/16 00:21:50;;;;;;;42.10;21.52;;;;;;;;;;4973084;28;20047;-74
2023/11/16 00:24:17;;;;;;;40.58;19.65;;;;;;;;;;4973354;28;20041;-74
2023/11/16 00:26:44;;;;;;;51.05;21.27;;;;;;;;;;4955841;28;20053;-73
2023/11/16 00:29:11;;;;;;;42.00;22.05;;;;;;;;;;4972009;28;20034;-73
2023/11/16 00:31:37;;;;;;;44.03;21.00;;;;;;;;;;4971804;28;20057;-74
2023/11/16 00:34:03;;;;;;;51.75;21.38;;;;;;;;;;4974548;28;20082;-74
2023/11/16 00:36:29;;;;;;;43.50;21.98;;;;;;;;;;4975343;28;20089;-75
2023/11/16 00:38:58;;;;;;;32.75;16.38;;;;;;;;;;4974516;28;20489;-74
2023/11/16 00:41:25;;;;;;;39.78;20.70;;;;;;;;;;4974931;28;20043;-75
2023/11/16 00:43:51;;;;;;;45.42;21.60;;;;;;;;;;4958860;28;20047;-75
2023/11/16 00:46:17;;;;;;;42.65;21.90;;;;;;;;;;4958223;28;20043;-75
2023/11/16 00:48:43;;;;;;;45.03;20.73;;;;;;;;;;4942303;28;20058;-75
2023/11/16 00:51:11;;;;;;;39.35;20.65;;;;;;;;;;4975668;28;20038;-75
2023/11/16 00:53:42;;;;;;;47.83;20.65;;;;;;;;;;4957694;28;20046;-75
2023/11/16 00:56:09;;;;;;;;;;;;;;;;;;4972831;28;20046;-74
2023/11/16 00:58:37;;;;;;;39.72;19.73;;;;;;;;;;4954644;28;19914;-73
2023/11/16 01:01:05;;;;;;;46.17;22.00;;;;;;;;;;4971542;28;20051;-72
2023/11/16 01:03:31;;;;;;;43.45;21.20;;;;;;;;;;4971707;28;20081;-73
2023/11/16 01:05:57;;;;;;;40.53;18.80;;;;;;;;;;4971401;28;20093;-74
2023/11/16 01:08:23;;;;;;;44.03;21.13;;;;;;;;;;4938050;28;20055;-73
2023/11/16 01:10:50;;;;;;;46.30;22.15;;;;;;;;;;4971403;28;20121;-74
2023/11/16 01:13:23;;;;;;;40.65;19.83;;;;;;;;;;4971466;28;20039;-73
2023/11/16 01:15:50;;;;;;;40.80;18.77;;;;;;;;;;4957375;28;20054;-74
2023/11/16 01:18:16;;;;;;;45.45;20.85;;;;;;;;;;4985407;28;20049;-74
2023/11/16 01:20:42;;;;;;;42.83;20.23;;;;;;;;;;4984090;28;20051;-73
2023/11/16 01:23:12;;;;;;;43.60;22.92;;;;;;;;;;4971504;28;20062;-73
2023/11/16 01:25:44;;;;;;;47.38;20.55;;;;;;;;;;4954131;28;20078;-74
2023/11/16 01:28:10;;;;;;;34.50;17.60;;;;;;;;;;4954470;28;20057;-72
2023/11/16 01:30:37;;;;;;;40.45;20.52;;;;;;;;;;4971580;28;20046;-74
2023/11/16 01:33:07;;;;;;;49.60;22.52;;;;;;;;;;4971260;28;20051;-73
2023/11/16 01:35:34;;;;;;;46.20;21.87;;;;;;;;;;4954356;28;20043;-74
2023/11/16 01:38:00;;;;;;;39.47;21.40;;;;;;;;;;4953779;28;20513;-74
2023/11/16 01:40:27;;;;;;;45.42;21.92;;;;;;;;;;4954269;28;20042;-73
2023/11/16 01:42:57;;;;;;;41.67;20.58;;;;;;;;;;4954786;28;20047;-74
2023/11/16 01:45:26;;;;;;;48.97;22.95;;;;;;;;;;4956614;28;20074;-74
2023/11/16 01:47:52;;;;;;;50.33;23.25;;;;;;;;;;4987273;28;20046;-75
2023/11/16 01:50:20;;;;;;;40.70;21.77;;;;;;;;;;4989303;28;20122;-74
2023/11/16 01:52:46;;;;;;;46.95;21.33;;;;;;;;;;4985918;28;20046;-74
2023/11/16 01:55:12;;;;;;;40.40;20.88;;;;;;;;;;4978639;28;20062;-74
2023/11/16 01:57:39;;;;;;;39.17;20.52;;;;;;;;;;4961465;28;20062;-74
2023/11/16 02:00:05;;;;;;;44.25;22.45;;;;;;;;;;4961529;28;20038;-74
2023/11/16 02:02:39;;;;;;;46.25;22.20;;;;;;;;;;4978923;28;20533;-74
2023/11/16 02:05:06;;;;;;;43.50;21.35;;;;;;;;;;4977523;28;20039;-74
2023/11/16 02:07:32;;;;;;;41.25;21.95;;;;;;;;;;4957598;28;20438;-76
2023/11/16 02:09:58;;;;;;;44.13;21.70;;;;;;;;;;4974775;28;20506;-74
2023/11/16 02:12:24;;;;;;;40.85;21.83;;;;;;;;;;4958338;28;20457;-74
2023/11/16 02:14:50;;;;;;;39.10;19.95;;;;;;;;;;4958902;28;20046;-74
2023/11/16 02:17:17;;;;;;;39.90;20.48;;;;;;;;;;4974426;28;20058;-73
2023/11/16 02:19:43;;;;;;;34.90;19.85;;;;;;;;;;4957308;28;20038;-73
2023/11/16 02:22:14;;;;;;;41.75;21.75;;;;;;;;;;4974409;28;20078;-74
2023/11/16 02:24:40;;;;;;;45.03;21.00;;;;;;;;;;4956986;28;20412;-74
2023/11/16 02:27:06;;;;;;;45.15;21.30;;;;;;;;;;4973895;28;20134;-73
2023/11/16 02:29:32;;;;;;;37.70;20.20;;;;;;;;;;4974937;28;20038;-75
2023/11/16 02:31:58;;;;;;;37.50;20.48;;;;;;;;;;4957103;28;20429;-73
2023/11/16 02:34:24;;;;;;;42.53;20.58;;;;;;;;;;4955888;28;20031;-74
2023/11/16 02:36:51;;;;;;;39.28;20.40;;;;;;;;;;4974033;28;20142;-74
2023/11/16 02:39:17;;;;;;;41.75;20.85;;;;;;;;;;4972558;28;20039;-73
2023/11/16 02:41:45;;;;;;;43.75;22.20;;;;;;;;;;4974158;28;20065;-73
2023/11/16 02:44:11;;;;;;;48.53;21.40;;;;;;;;;;4973542;28;20043;-73
2023/11/16 02:46:37;;;;;;;38.50;18.58;;;;;;;;;;4974083;28;20047;-74
2023/11/16 02:49:03;;;;;;;39.17;19.13;;;;;;;;;;4972262;28;20047;-74
2023/11/16 02:51:31;;;;;;;42.60;19.90;;;;;;;;;;4973884;28;20051;-70
2023/11/16 02:54:02;;;;;;;39.88;19.88;;;;;;;;;;4940156;28;20521;-74
2023/11/16 02:56:29;;;;;;;47.35;19.88;;;;;;;;;;4953280;28;20055;-74
2023/11/16 02:58:56;;;;;;;39.55;20.58;;;;;;;;;;4928315;28;20518;-73
2023/11/16 03:01:22;;;;;;;36.40;21.48;;;;;;;;;;4937390;28;20057;-73
2023/11/16 03:03:49;;;;;;;51.15;20.38;;;;;;;;;;4947172;28;20102;-72
2023/11/16 03:06:15;;;;;;;47.45;20.98;;;;;;;;;;4963625;28;20058;-73
2023/11/16 03:08:42;;;;;;;41.38;20.05;;;;;;;;;;4946135;28;20046;-72
2023/11/16 03:11:08;;;;;;;43.22;20.70;;;;;;;;;;4963470;28;20129;-73
2023/11/16 03:13:36;;;;;;;40.33;20.60;;;;;;;;;;4961214;28;20040;-72
2023/11/16 03:16:04;;;;;;;45.20;21.77;;;;;;;;;;4963355;28;20592;-72
2023/11/16 03:18:30;;;;;;;35.78;18.52;;;;;;;;;;4964519;28;20137;-73
2023/11/16 03:20:56;;;;;;;38.88;20.55;;;;;;;;;;4965069;28;20126;-73
2023/11/16 03:23:22;;;;;;;46.45;22.17;;;;;;;;;;4964664;28;20142;-73
2023/11/16 03:25:49;;;;;;;49.97;22.25;;;;;;;;;;4962290;28;20561;-74
2023/11/16 03:28:15;;;;;;;40.50;20.92;;;;;;;;;;4965535;28;20042;-73
2023/11/16 03:30:41;;;;;;;38.22;19.98;;;;;;;;;;4962164;28;20506;-73
2023/11/16 03:33:12;;;;;;;47.28;21.27;;;;;;;;;;4966837;28;20042;-72
2023/11/16 03:35:39;;;;;;;44.73;20.43;;;;;;;;;;4963367;28;20043;-73
2023/11/16 03:38:06;;;;;;;44.25;23.27;;;;;;;;;;4955584;28;20047;-73
2023/11/16 03:40:32;;;;;;;40.00;21.42;;;;;;;;;;4972695;28;20046;-73
2023/11/16 03:42:59;;;;;;;45.28;21.52;;;;;;;;;;4971875;28;20055;-72
2023/11/16 03:45:25;;;;;;;47.72;22.60;;;;;;;;;;4972396;28;20049;-73
2023/11/16 03:47:52;;;;;;;48.90;23.50;;;;;;;;;;4972702;28;20136;-73
2023/11/16 03:50:18;;;;;;;53.17;25.02;;;;;;;;;;4971109;28;20054;-73
2023/11/16 03:52:45;;;;;;;50.70;25.02;;;;;;;;;;4971516;28;20049;-74
2023/11/16 03:55:11;;;;;;;58.78;25.77;;;;;;;;;;4972294;28;20045;-73
2023/11/16 03:57:37;;;;;;;49.55;24.52;;;;;;;;;;4971343;28;20078;-73
2023/11/16 04:00:04;;;;;;;54.10;24.45;;;;;;;;;;4965618;28;20485;-73
2023/11/16 04:02:38;;;;;;;47.70;23.40;;;;;;;;;;4948172;28;20035;-73
2023/11/16 04:05:05;;;;;;;47.70;23.70;;;;;;;;;;4976255;28;20058;-73
2023/11/16 04:07:32;;;;;;;63.60;28.70;;;;;;;;;;4977884;28;20035;-73
2023/11/16 04:10:00;;;;;;;57.35;25.48;;;;;;;;;;4970351;28;20043;-73
2023/11/16 04:12:26;;;;;;;54.08;24.05;;;;;;;;;;4982623;28;20086;-74
2023/11/16 04:14:52;;;;;;;61.45;25.70;;;;;;;;;;4972086;28;20054;-74
2023/11/16 04:17:21;;;;;;;63.92;25.40;;;;;;;;;;4954634;28;20058;-74
2023/11/16 04:19:47;;;;;;;54.72;23.48;;;;;;;;;;4972294;28;20045;-74
2023/11/16 04:22:16;;;;;;;55.65;22.77;;;;;;;;;;4954763;28;20138;-73
2023/11/16 04:24:44;;;;;;;58.17;26.27;;;;;;;;;;4971984;28;20486;-73
2023/11/16 04:27:11;;;;;;;52.95;24.33;;;;;;;;;;4971739;28;20050;-73
2023/11/16 04:29:40;;;;;;;52.05;24.73;;;;;;;;;;4953375;28;20039;-73
2023/11/16 04:32:07;;;;;;;60.80;24.42;;;;;;;;;;4970994;28;20042;-73
2023/11/16 04:34:33;;;;;;;55.45;22.92;;;;;;;;;;4971655;28;20185;-73
2023/11/16 04:37:04;;;;;;;60.65;27.88;;;;;;;;;;4955696;28;20046;-73
2023/11/16 04:39:30;;;;;;;59.38;25.23;;;;;;;;;;4955492;28;20456;-73
2023/11/16 04:41:56;;;;;;;57.65;24.45;;;;;;;;;;4948144;28;20078;-73
2023/11/16 04:44:22;;;;;;;60.60;25.02;;;;;;;;;;4956472;28;20067;-73
2023/11/16 04:46:51;;;;;;;46.78;22.73;;;;;;;;;;4954597;28;20075;-72
2023/11/16 04:49:19;;;;;;;55.35;24.70;;;;;;;;;;4963478;28;20038;-73
2023/11/16 04:51:46;;;;;;;54.95;21.58;;;;;;;;;;4956119;28;20050;-73
2023/11/16 04:54:12;;;;;;;46.65;20.15;;;;;;;;;;4961400;28;20670;-73
2023/11/16 04:56:38;;;;;;;56.53;22.52;;;;;;;;;;4944317;28;20187;-74
2023/11/16 04:59:08;;;;;;;52.58;22.42;;;;;;;;;;4962106;28;20537;-71
2023/11/16 05:01:34;;;;;;;41.50;19.50;;;;;;;;;;4957709;28;20529;-73
2023/11/16 05:04:01;;;;;;;23.20;13.20;;;;;;;;;;4952299;29;20039;-72
2023/11/16 05:06:27;;;;;;;36.70;16.00;;;;;;;;;;4952095;28;20047;-76
2023/11/16 05:08:53;;;;;;;31.63;13.70;;;;;;;;;;4969935;28;20544;-74
2023/11/16 05:11:20;;;;;;;30.80;16.85;;;;;;;;;;4971303;28;20047;-73
2023/11/16 05:13:46;;;;;;;28.20;14.23;;;;;;;;;;4954432;28;20299;-74
2023/11/16 05:16:13;;;;;;;32.15;13.48;;;;;;;;;;4970919;28;20141;-74
2023/11/16 05:18:40;;;;;;;23.23;11.88;;;;;;;;;;4971338;28;20039;-74
2023/11/16 05:21:08;;;;;;;24.92;13.75;;;;;;;;;;4966471;28;20035;-73
2023/11/16 05:23:34;;;;;;;21.85;11.50;;;;;;;;;;4969963;28;20065;-72
2023/11/16 05:26:00;;;;;;;18.98;10.48;;;;;;;;;;4970531;28;20050;-73
2023/11/16 05:28:26;;;;;;;19.90;10.50;;;;;;;;;;4970224;28;20042;-73
2023/11/16 05:30:52;;;;;;;23.92;11.48;;;;;;;;;;4969692;28;20544;-72
2023/11/16 05:33:19;;;;;;;19.33;11.02;;;;;;;;;;4970552;28;20081;-72
2023/11/16 05:35:48;;;;;;;10.27;7.70;;;;;;;;;;4937085;28;20139;-71
2023/11/16 05:38:14;;;;;;;21.27;11.77;;;;;;;;;;4970614;28;20046;-73
2023/11/16 05:40:42;;;;;;;21.27;10.50;;;;;;;;;;4971610;28;20466;-73
2023/11/16 05:43:08;;;;;;;16.05;9.45;;;;;;;;;;4953129;28;20410;-72
2023/11/16 05:45:34;;;;;;;26.23;11.32;;;;;;;;;;4968223;28;20050;-73
2023/11/16 05:48:00;;;;;;;17.65;8.75;;;;;;;;;;4970288;28;20502;-73
2023/11/16 05:50:26;;;;;;;15.23;8.55;;;;;;;;;;4970192;28;20039;-74
2023/11/16 05:52:53;;;;;;;22.45;8.43;;;;;;;;;;4970507;28;20050;-72
2023/11/16 05:55:20;;;;;;;20.77;8.88;;;;;;;;;;4970161;28;20043;-75
2023/11/16 05:57:47;;;;;;;21.80;10.95;;;;;;;;;;4970284;28;20150;-74
2023/11/16 06:00:14;;;;;;;20.45;10.43;;;;;;;;;;4970232;28;20035;-74
2023/11/16 06:02:40;;;;;;;18.77;7.45;;;;;;;;;;4969476;28;20502;-73
2023/11/16 06:05:08;;;;;;;30.00;11.48;;;;;;;;;;4970059;28;20549;-74
2023/11/16 06:07:37;;;;;;;22.45;9.75;;;;;;;;;;4969629;28;20134;-73
2023/11/16 06:10:03;;;;;;;21.13;9.05;;;;;;;;;;4968805;28;20078;-72
2023/11/16 06:12:30;;;;;;;15.02;7.82;;;;;;;;;;4952619;28;20543;-73
2023/11/16 06:14:56;;;;;;;14.95;7.95;;;;;;;;;;4946913;29;20143;-75
2023/11/16 06:17:23;;;;;;;22.08;15.35;;;;;;;;;;4950740;29;20160;-73
2023/11/16 06:19:49;;;;;;;16.88;9.43;;;;;;;;;;4949421;29;20035;-73
2023/11/16 06:22:15;;;;;;;17.80;10.65;;;;;;;;;;4949585;29;20049;-73
2023/11/16 06:24:41;;;;;;;29.27;13.70;;;;;;;;;;4950724;29;20066;-73
2023/11/16 06:27:07;;;;;;;16.80;11.15;;;;;;;;;;4953788;28;20066;-72
2023/11/16 06:29:34;;;;;;;13.90;9.40;;;;;;;;;;4969639;28;20047;-73
2023/11/16 06:32:00;;;;;;;19.38;10.95;;;;;;;;;;4970873;28;20134;-73
2023/11/16 06:34:26;;;;;;;17.23;9.95;;;;;;;;;;4971961;28;20069;-74
2023/11/16 06:36:52;;;;;;;13.38;9.45;;;;;;;;;;4957827;28;20701;-73
2023/11/16 06:39:18;;;;;;;13.13;8.32;;;;;;;;;;4972190;28;20523;-73
2023/11/16 06:41:44;;;;;;;13.50;9.48;;;;;;;;;;4969807;28;20047;-72
2023/11/16 06:44:10;;;;;;;12.40;7.18;;;;;;;;;;4953894;29;20047;-72
2023/11/16 06:46:36;;;;;;;12.60;8.05;;;;;;;;;;4942691;28;20895;-73
2023/11/16 06:49:02;;;;;;;10.23;7.20;;;;;;;;;;4948912;28;20122;-73
2023/11/16 06:51:29;;;;;;;9.65;6.65;;;;;;;;;;4953882;28;21226;-73
2023/11/16 06:53:54;;;;;;;11.13;6.95;;;;;;;;;;4960803;28;20144;-73
2023/11/16 06:56:20;;;;;;;12.57;8.20;;;;;;;;;;4956425;29;20438;-73
2023/11/16 06:58:47;;;;;;;10.38;7.07;;;;;;;;;;4955295;29;20061;-74
2023/11/16 07:01:13;;;;;;;8.05;7.00;;;;;;;;;;4967688;29;20054;-73
2023/11/16 07:03:39;;;;;;;10.32;6.65;;;;;;;;;;4970040;29;20562;-71
2023/11/16 07:06:06;;;;;;;13.48;8.23;;;;;;;;;;4954188;29;20138;-72
2023/11/16 07:08:32;;;;;;;14.50;11.45;;;;;;;;;;4958596;28;20121;-71
2023/11/16 07:10:58;;;;;;;10.05;8.32;;;;;;;;;;4963733;28;20102;-73
2023/11/16 07:13:25;;;;;;;11.32;8.50;;;;;;;;;;4961977;28;20053;-72
2023/11/16 07:15:51;;;;;;;14.57;9.30;;;;;;;;;;4962034;28;20058;-71
2023/11/16 07:18:20;;;;;;;18.25;10.48;;;;;;;;;;4962769;28;20420;-72
2023/11/16 07:20:47;;;;;;;18.52;9.40;;;;;;;;;;4963456;28;20038;-71
2023/11/16 07:23:14;;;;;;;11.27;7.22;;;;;;;;;;4962295;28;20509;-72
2023/11/16 07:25:43;;;;;;;12.80;8.90;;;;;;;;;;4962648;28;20498;-71
2023/11/16 07:28:10;;;;;;;10.13;8.07;;;;;;;;;;4972138;28;20417;-72
2023/11/16 07:30:36;;;;;;;8.45;6.78;;;;;;;;;;4954680;28;20519;-73
2023/11/16 07:33:05;;;;;;;13.65;7.22;;;;;;;;;;4923004;28;20049;-71
2023/11/16 07:35:33;;;;;;;9.50;6.95;;;;;;;;;;4971501;28;20042;-70
2023/11/16 07:38:00;;;;;;;8.43;5.90;;;;;;;;;;4945317;29;20125;-72
2023/11/16 07:40:27;;;;;;;9.85;6.43;;;;;;;;;;4967248;28;20050;-70
2023/11/16 07:42:54;;;;;;;11.63;6.68;;;;;;;;;;4954281;28;20046;-70
2023/11/16 07:45:20;;;;;;;11.10;6.78;;;;;;;;;;4941845;28;20054;-73
2023/11/16 07:47:51;;;;;;;8.60;6.68;;;;;;;;;;4971839;28;20517;-70
2023/11/16 07:50:18;;;;;;;9.07;6.80;;;;;;;;;;4949492;29;20494;-71
2023/11/16 07:52:45;;;;;;;8.00;6.65;;;;;;;;;;4963458;28;20080;-71
2023/11/16 07:55:15;;;;;;;10.35;7.45;;;;;;;;;;4967792;28;20085;-71
2023/11/16 07:57:43;;;;;;;9.68;7.60;;;;;;;;;;4944213;28;20051;-71
2023/11/16 08:00:16;;;;;;;16.45;9.52;;;;;;;;;;4962834;28;20504;-73
2023/11/16 08:05:31;;;;;;;14.48;8.95;;;;;;;;;;4946484;28;20034;-71
2023/11/16 08:07:57;;;;;;;8.88;7.63;;;;;;;;;;4961604;28;20074;-73
2023/11/16 08:10:27;;;;;;;11.43;8.05;;;;;;;;;;4946108;29;20364;-73
2023/11/16 08:12:56;;;;;;;13.63;8.43;;;;;;;;;;4952115;28;20098;-74
2023/11/16 08:15:25;;;;;;;8.70;7.65;;;;;;;;;;4955881;28;20055;-74
2023/11/16 08:17:54;;;;;;;17.33;9.38;;;;;;;;;;4951676;28;20069;-74
2023/11/16 08:20:24;;;;;;;12.73;10.10;;;;;;;;;;4957884;28;20134;-73
2023/11/16 08:22:50;;;;;;;14.32;10.68;;;;;;;;;;4967089;28;20509;-73
2023/11/16 08:25:24;;;;;;;12.57;9.57;;;;;;;;;;4954480;28;20088;-70
2023/11/16 08:27:50;;;;;;;9.93;8.15;;;;;;;;;;4951804;28;20435;-71
2023/11/16 08:30:16;;;;;;;10.55;9.38;;;;;;;;;;4934450;29;20514;-72
2023/11/16 08:32:43;;;;;;;11.40;8.60;;;;;;;;;;4934395;29;20047;-71
2023/11/16 08:35:10;;;;;;;10.70;9.20;;;;;;;;;;4946979;28;20042;-71
2023/11/16 08:37:42;;;;;;;10.02;9.02;;;;;;;;;;4968763;28;20062;-72
2023/11/16 08:40:09;;;;;;;8.27;7.47;;;;;;;;;;4962350;28;20047;-71
2023/11/16 08:42:41;;;;;;;10.07;7.82;;;;;;;;;;4951075;28;20055;-71
2023/11/16 08:48:16;;;;;;;15.88;11.15;;;;;;;;;;4939654;23;20067;-73
2023/11/16 08:50:43;;;;;;;20.80;17.25;;;;;;;;;;4951032;29;20039;-72
2023/11/16 08:53:12;;;;;;;27.50;18.17;;;;;;;;;;4951338;29;20043;-73
2023/11/16 08:55:39;;;;;;;19.75;14.15;;;;;;;;;;4932854;29;20524;-74
2023/11/16 08:58:06;;;;;;;18.48;15.10;;;;;;;;;;4949753;29;20054;-72
2023/11/16 09:00:37;;;;;;;15.68;12.68;;;;;;;;;;4951065;29;20046;-71
2023/11/16 09:03:04;;;;;;;14.38;12.88;;;;;;;;;;4950813;28;20509;-71
2023/11/16 09:05:35;;;;;;;14.85;12.18;;;;;;;;;;4933070;29;20046;-73
2023/11/16 09:08:01;;;;;;;16.15;14.10;;;;;;;;;;4933542;29;20059;-70
2023/11/16 09:10:28;;;;;;;20.92;16.40;;;;;;;;;;4950987;29;20047;-71
2023/11/16 09:12:55;;;;;;;18.00;16.02;;;;;;;;;;4950594;29;20510;-71
2023/11/16 09:15:22;;;;;;;15.55;13.80;;;;;;;;;;4934340;29;20051;-71
2023/11/16 09:17:51;;;;;;;14.40;12.38;;;;;;;;;;4933459;29;20042;-71
2023/11/16 09:20:22;;;;;;;15.02;13.55;;;;;;;;;;4950614;28;20043;-72
2023/11/16 09:22:49;;;;;;;17.80;15.63;;;;;;;;;;4950542;28;20058;-73
2023/11/16 09:25:15;;;;;;;15.23;11.85;;;;;;;;;;4951096;29;20417;-72
2023/11/16 09:27:42;;;;;;;15.88;11.80;;;;;;;;;;4934568;29;20580;-71
2023/11/16 09:30:14;;;;;;;13.88;11.63;;;;;;;;;;4946694;29;20070;-74
2023/11/16 09:32:41;;;;;;;18.48;15.73;;;;;;;;;;4955982;29;20043;-72
2023/11/16 09:35:09;;;;;;;14.15;12.20;;;;;;;;;;4951219;29;20047;-74
2023/11/16 09:37:36;;;;;;;16.38;13.00;;;;;;;;;;4946062;28;20058;-74
2023/11/16 09:40:05;;;;;;;14.05;12.50;;;;;;;;;;4949137;28;20047;-72
2023/11/16 09:42:33;;;;;;;16.13;14.48;;;;;;;;;;4950677;29;20110;-71
2023/11/16 09:45:00;;;;;;;17.63;13.70;;;;;;;;;;4934133;29;20687;-73
2023/11/16 09:47:29;;;;;;;22.25;15.27;;;;;;;;;;4935178;29;20047;-72
2023/11/16 09:49:56;;;;;;;20.05;14.25;;;;;;;;;;4947504;29;20536;-72
2023/11/16 09:52:33;;;;;;;14.93;13.38;;;;;;;;;;4950231;29;20169;-73
2023/11/16 09:55:00;;;;;;;23.75;16.08;;;;;;;;;;4939468;29;20114;-72
2023/11/16 09:57:28;;;;;;;26.60;18.75;;;;;;;;;;4950772;29;20047;-72
2023/11/16 09:59:56;;;;;;;35.47;20.67;;;;;;;;;;4951222;29;20595;-71
2023/11/16 10:02:25;;;;;;;44.05;23.77;;;;;;;;;;4933593;29;20039;-72
2023/11/16 10:04:53;;;;;;;37.08;23.23;;;;;;;;;;4950496;29;20048;-73
2023/11/16 10:07:20;;;;;;;17.65;14.20;;;;;;;;;;4952283;28;20039;-71
2023/11/16 10:09:46;;;;;;;20.98;16.67;;;;;;;;;;4953135;29;20437;-72
2023/11/16 10:12:12;;;;;;;15.23;12.45;;;;;;;;;;4954067;29;20035;-71
2023/11/16 10:14:39;;;;;;;21.15;15.70;;;;;;;;;;4937054;29;20576;-72
2023/11/16 10:17:07;;;;;;;21.60;16.73;;;;;;;;;;4937098;29;20086;-71
2023/11/16 10:19:33;;;;;;;16.38;14.18;;;;;;;;;;4954109;29;20483;-71
2023/11/16 10:21:59;;;;;;;16.27;14.88;;;;;;;;;;4953868;29;20054;-72
2023/11/16 10:24:25;;;;;;;18.42;16.02;;;;;;;;;;4937046;29;20051;-72
2023/11/16 10:26:51;;;;;;;15.70;14.13;;;;;;;;;;4953211;29;20051;-72
2023/11/16 10:29:17;;;;;;;17.73;15.90;;;;;;;;;;4953208;29;20249;-72
2023/11/16 10:31:46;;;;;;;15.25;13.73;;;;;;;;;;4953724;29;20130;-72
2023/11/16 10:34:15;;;;;;;16.85;14.02;;;;;;;;;;4953668;29;20047;-72
2023/11/16 10:36:43;;;;;;;14.75;13.25;;;;;;;;;;4935245;29;20188;-72
2023/11/16 10:39:11;;;;;;;19.08;14.10;;;;;;;;;;4936627;29;20047;-73
2023/11/16 10:41:38;;;;;;;15.13;13.60;;;;;;;;;;4953305;29;20085;-71
2023/11/16 10:44:05;;;;;;;18.50;16.60;;;;;;;;;;4953502;29;20537;-73
2023/11/16 10:46:31;;;;;;;19.75;17.35;;;;;;;;;;4936193;29;20043;-72
2023/11/16 10:48:57;;;;;;;19.20;16.73;;;;;;;;;;4953481;29;20098;-72
2023/11/16 10:51:24;;;;;;;14.98;13.57;;;;;;;;;;4952990;29;20078;-72
2023/11/16 10:53:51;;;;;;;16.60;14.25;;;;;;;;;;4936725;29;20122;-72
2023/11/16 10:56:17;;;;;;;17.80;15.50;;;;;;;;;;4954273;29;20051;-72
2023/11/16 10:58:44;;;;;;;18.38;15.27;;;;;;;;;;4953865;29;20050;-72
2023/11/16 11:01:14;;;;;;;17.50;15.63;;;;;;;;;;4936825;29;20062;-71
2023/11/16 11:03:40;;;;;;;16.70;13.98;;;;;;;;;;4953195;29;20051;-70
2023/11/16 11:06:12;;;;;;;17.77;16.00;;;;;;;;;;4935975;29;20468;-71
2023/11/16 11:08:40;;;;;;;14.68;13.27;;;;;;;;;;4953085;29;20110;-72
2023/11/16 11:11:10;;;;;;;16.75;14.90;;;;;;;;;;4936072;29;20054;-70
2023/11/16 11:13:39;;;;;;;17.92;16.23;;;;;;;;;;4936657;29;20532;-71
2023/11/16 11:16:06;;;;;;;19.10;17.10;;;;;;;;;;4953082;29;20043;-70
2023/11/16 11:18:32;;;;;;;16.02;12.82;;;;;;;;;;4951979;28;20106;-72
2023/11/16 11:21:07;;;;;;;12.90;11.50;;;;;;;;;;4953029;29;20043;-70
2023/11/16 11:23:33;;;;;;;13.38;11.95;;;;;;;;;;4952795;29;20525;-69
2023/11/16 11:26:03;;;;;;;14.10;12.82;;;;;;;;;;4953483;29;20066;-70
2023/11/16 11:28:29;;;;;;;17.02;15.18;;;;;;;;;;4920984;29;20122;-70
2023/11/16 11:30:59;;;;;;;22.08;15.02;;;;;;;;;;4937882;29;20469;-69
2023/11/16 11:33:45;;;;;;;13.77;12.02;;;;;;;;;;4954509;29;20540;-72
2023/11/16 11:36:16;;;;;;;11.40;9.98;;;;;;;;;;4935675;29;20118;-70
2023/11/16 11:38:46;;;;;;;13.45;12.15;;;;;;;;;;4945307;29;20051;-71
2023/11/16 11:41:12;;;;;;;11.70;10.68;;;;;;;;;;4933604;29;20040;-71
2023/11/16 11:43:39;;;;;;;8.70;7.97;;;;;;;;;;4934577;29;20142;-72
2023/11/16 11:46:09;;;;;;;9.15;8.45;;;;;;;;;;4951953;28;20047;-72
2023/11/16 11:48:36;;;;;;;8.98;7.97;;;;;;;;;;4937246;29;20509;-72
2023/11/16 11:51:05;;;;;;;13.00;11.25;;;;;;;;;;4934939;29;20461;-72
2023/11/16 11:53:32;;;;;;;10.55;9.57;;;;;;;;;;4936982;29;20047;-72
2023/11/16 11:56:00;;;;;;;17.90;11.20;;;;;;;;;;4940374;29;20127;-72
2023/11/16 11:58:26;;;;;;;10.30;9.40;;;;;;;;;;4952182;29;20058;-72
2023/11/16 12:00:54;;;;;;;11.43;10.23;;;;;;;;;;4934948;29;20125;-72
2023/11/16 12:03:20;;;;;;;7.88;7.28;;;;;;;;;;4933284;29;20182;-73
2023/11/16 12:05:58;;;;;;;6.95;6.25;;;;;;;;;;4932833;29;20050;-72
2023/11/16 12:08:36;;;;;;;10.27;9.27;;;;;;;;;;4944887;29;20054;-72
2023/11/16 12:11:04;;;;;;;8.32;7.60;;;;;;;;;;4931640;29;20469;-73
2023/11/16 12:13:31;;;;;;;8.07;7.47;;;;;;;;;;4931846;29;20091;-72
2023/11/16 12:15:57;;;;;;;8.45;7.82;;;;;;;;;;4932599;29;20571;-72
2023/11/16 12:18:23;;;;;;;7.55;6.82;;;;;;;;;;4933219;29;20039;-73
2023/11/16 12:20:49;;;;;;;11.20;10.23;;;;;;;;;;4933380;29;20039;-71
2023/11/16 12:23:15;;;;;;;7.60;7.00;;;;;;;;;;4940229;29;20090;-72
2023/11/16 12:25:42;;;;;;;8.90;8.20;;;;;;;;;;4945954;29;20044;-71
2023/11/16 12:28:10;;;;;;;7.57;6.93;;;;;;;;;;4933272;29;20090;-72
2023/11/16 12:30:37;;;;;;;8.10;7.30;;;;;;;;;;4932701;29;20056;-72
2023/11/16 12:33:08;;;;;;;8.55;7.75;;;;;;;;;;4931249;29;20050;-71
2023/11/16 12:35:37;;;;;;;10.30;6.93;;;;;;;;;;4930724;29;20457;-71
2023/11/16 12:38:04;;;;;;;8.27;6.55;;;;;;;;;;4949901;29;20055;-72
2023/11/16 12:40:30;;;;;;;8.98;8.25;;;;;;;;;;4931116;29;20099;-72
2023/11/16 12:42:56;;;;;;;11.57;10.50;;;;;;;;;;4948715;29;20061;-71
2023/11/16 12:45:22;;;;;;;6.63;6.13;;;;;;;;;;4950025;29;20035;-71
2023/11/16 12:47:48;;;;;;;7.75;7.05;;;;;;;;;;4950608;28;20577;-71
2023/11/16 12:50:16;;;;;;;6.78;6.28;;;;;;;;;;4948307;29;20047;-74
2023/11/16 12:52:41;;;;;;;6.00;5.60;;;;;;;;;;4930890;29;20071;-71
2023/11/16 12:55:12;;;;;;;7.75;7.15;;;;;;;;;;4951784;29;20097;-71
2023/11/16 12:57:40;;;;;;;9.63;8.48;;;;;;;;;;4933384;29;20059;-70
2023/11/16 13:00:08;;;;;;;8.52;7.55;;;;;;;;;;4946591;28;20043;-71
2023/11/16 13:02:36;;;;;;;9.00;7.80;;;;;;;;;;4945858;29;20034;-70
2023/11/16 13:05:04;;;;;;;8.45;7.75;;;;;;;;;;4939873;29;20123;-71
2023/11/16 13:07:31;;;;;;;9.52;8.30;;;;;;;;;;4944307;29;20047;-71
2023/11/16 13:10:00;;;;;;;10.98;10.07;;;;;;;;;;4944834;29;20066;-72
2023/11/16 13:12:26;;;;;;;9.07;8.27;;;;;;;;;;4932233;29;20044;-71
2023/11/16 13:14:52;;;;;;;10.85;9.85;;;;;;;;;;4943270;28;20470;-72
2023/11/16 13:17:18;;;;;;;11.88;10.77;;;;;;;;;;4943445;29;20162;-71
2023/11/16 13:19:44;;;;;;;10.40;9.30;;;;;;;;;;4931746;29;20107;-71
2023/11/16 13:22:10;;;;;;;10.27;9.30;;;;;;;;;;4932331;29;20043;-72
2023/11/16 13:24:37;;;;;;;9.45;8.65;;;;;;;;;;4948638;29;20398;-72
2023/11/16 13:27:03;;;;;;;10.38;9.35;;;;;;;;;;4945643;29;20548;-72
2023/11/16 13:29:29;;;;;;;17.48;11.65;;;;;;;;;;4925384;29;20084;-71
2023/11/16 13:31:56;;;;;;;10.20;9.35;;;;;;;;;;4950975;29;20061;-73
2023/11/16 13:34:24;;;;;;;12.95;11.65;;;;;;;;;;4933823;29;20039;-72
2023/11/16 13:36:50;;;;;;;13.00;11.90;;;;;;;;;;4950799;29;20604;-73
2023/11/16 13:39:16;;;;;;;10.30;9.45;;;;;;;;;;4946249;29;20036;-76
2023/11/16 13:41:47;;;;;;;10.45;9.35;;;;;;;;;;4926735;29;20043;-74
2023/11/16 13:44:13;;;;;;;10.65;9.63;;;;;;;;;;4952033;29;20143;-72
2023/11/16 13:46:39;;;;;;;9.57;8.77;;;;;;;;;;4954772;28;20054;-72
2023/11/16 13:49:05;;;;;;;11.38;10.38;;;;;;;;;;4953342;29;20130;-75
2023/11/16 13:51:31;;;;;;;8.98;8.07;;;;;;;;;;4934521;29;20131;-73
2023/11/16 13:53:57;;;;;;;7.68;7.05;;;;;;;;;;4947915;29;20047;-68
2023/11/16 13:56:23;;;;;;;8.80;7.72;;;;;;;;;;4954081;29;20054;-71
2023/11/16 13:58:50;;;;;;;9.95;9.05;;;;;;;;;;4953506;29;20047;-73
2023/11/16 14:01:17;;;;;;;8.48;7.78;;;;;;;;;;4954592;29;20197;-72
2023/11/16 14:03:43;;;;;;;9.30;8.48;;;;;;;;;;4952977;29;20043;-71
2023/11/16 14:06:09;;;;;;;8.82;8.02;;;;;;;;;;4947163;29;20431;-72
2023/11/16 14:08:35;;;;;;;10.32;9.52;;;;;;;;;;4914852;29;20513;-70
2023/11/16 14:11:02;;;;;;;11.27;9.55;;;;;;;;;;4924923;29;20645;-71
2023/11/16 14:13:30;;;;;;;7.97;7.18;;;;;;;;;;4949743;29;20044;-71
2023/11/16 14:15:56;;;;;;;12.38;10.88;;;;;;;;;;4947748;29;20046;-72
2023/11/16 14:18:22;;;;;;;9.18;6.82;;;;;;;;;;4930533;29;20070;-71
2023/11/16 14:20:48;;;;;;;11.73;10.52;;;;;;;;;;4936666;29;20035;-72
2023/11/16 14:23:15;;;;;;;18.33;10.27;;;;;;;;;;4933670;29;20485;-71
2023/11/16 14:25:41;;;;;;;10.10;7.15;;;;;;;;;;4932788;29;20295;-71
2023/11/16 14:28:07;;;;;;;7.53;6.93;;;;;;;;;;4948797;29;20135;-73
2023/11/16 14:30:38;;;;;;;;;;;;;;;;;;4954101;29;20534;-72